Time;durP1;ratioP1;P1;durP2;ratioP2;P2;SDS_P1;SDS_P2;PMS_P1;PMS_P2;Temp;Humidity;BMP_temperature;BMP_pressure;BME280_temperature;BME280_humidity;BME280_pressure;Samples;Min_cycle;Max_cycle;Signal;HPM_P1;HPM_P2
2023/12/21 00:00:14;;;;;;;28.48;4.68;;;;;;;8.19;100.00;100171.59;4873836;29;20435;-79
2023/12/21 00:02:42;;;;;;;26.00;4.22;;;;;;;8.20;100.00;100170.72;4848775;29;20501;-79
2023/12/21 00:05:09;;;;;;;26.85;4.22;;;;;;;8.18;100.00;100157.63;4874649;29;20379;-78
2023/12/21 00:07:38;;;;;;;34.08;4.88;;;;;;;8.18;100.00;100149.75;4830481;29;20064;-79
2023/12/21 00:10:06;;;;;;;23.90;4.68;;;;;;;8.19;100.00;100146.22;4857380;29;20713;-80
2023/12/21 00:12:35;;;;;;;25.73;5.32;;;;;;;8.19;100.00;100137.50;4876332;29;20060;-78
2023/12/21 00:15:05;;;;;;;33.40;5.43;;;;;;;8.19;100.00;100124.38;4820974;29;20083;-80
2023/12/21 00:17:32;;;;;;;29.40;4.90;;;;;;;8.19;100.00;100135.72;4858514;29;20063;-79
2023/12/21 00:20:00;;;;;;;29.13;4.70;;;;;;;8.19;100.00;100140.13;4859123;29;20053;-78
2023/12/21 00:22:29;;;;;;;22.88;3.80;;;;;;;8.19;100.00;100140.97;4866666;29;20765;-79
2023/12/21 00:24:57;;;;;;;36.15;6.03;;;;;;;8.18;100.00;100120.88;4848027;29;20041;-79
2023/12/21 00:27:24;;;;;;;25.38;5.35;;;;;;;8.18;100.00;100110.38;4841960;29;20053;-80
2023/12/21 00:29:51;;;;;;;29.73;5.07;;;;;;;8.19;100.00;100106.84;4822428;29;20045;-79
2023/12/21 00:32:19;;;;;;;28.40;4.63;;;;;;;8.19;100.00;100106.00;4856885;29;20392;-79
2023/12/21 00:34:49;;;;;;;27.75;4.80;;;;;;;8.18;100.00;100107.75;4854892;29;20080;-79
2023/12/21 00:37:17;;;;;;;25.67;4.53;;;;;;;8.19;100.00;100106.00;4840899;29;20442;-79
2023/12/21 00:39:48;;;;;;;30.00;4.80;;;;;;;8.18;100.00;100094.63;4836794;29;20466;-78
2023/12/21 00:42:15;;;;;;;25.80;4.65;;;;;;;8.19;100.00;100108.63;4840789;29;20809;-79
2023/12/21 00:44:42;;;;;;;31.42;4.75;;;;;;;8.20;100.00;100105.09;4836587;29;20053;-78
2023/12/21 00:47:10;;;;;;;21.33;4.38;;;;;;;8.19;100.00;100104.22;4859099;29;20057;-79
2023/12/21 00:49:38;;;;;;;26.52;4.45;;;;;;;8.19;100.00;100095.50;4861292;29;20132;-78
2023/12/21 00:52:05;;;;;;;25.63;4.25;;;;;;;8.18;100.00;100089.38;4860670;29;20145;-79
2023/12/21 00:54:34;;;;;;;37.00;5.28;;;;;;;8.20;100.00;100084.09;4861633;29;20057;-79
2023/12/21 00:57:01;;;;;;;24.95;4.65;;;;;;;8.20;100.00;100086.72;4866956;29;20060;-79
2023/12/21 00:59:28;;;;;;;26.02;4.65;;;;;;;8.20;100.00;100063.09;4825176;29;20068;-79
2023/12/21 01:01:56;;;;;;;20.27;4.15;;;;;;;8.20;100.00;100061.38;4861734;29;20048;-78
2023/12/21 01:04:25;;;;;;;29.55;4.40;;;;;;;8.22;100.00;100053.47;4858134;29;20061;-78
2023/12/21 01:06:52;;;;;;;23.85;3.97;;;;;;;8.21;100.00;100043.88;4861777;29;20057;-78
2023/12/21 01:09:20;;;;;;;23.85;6.22;;;;;;;8.23;100.00;100046.50;4874536;29;20817;-78
2023/12/21 01:11:47;;;;;;;22.25;4.10;;;;;;;8.24;100.00;100040.38;4872836;29;20058;-79
2023/12/21 01:14:14;;;;;;;22.08;4.15;;;;;;;8.23;100.00;100031.63;4826178;29;20060;-78
2023/12/21 01:16:42;;;;;;;22.15;4.60;;;;;;;8.23;100.00;100021.13;4853533;29;20057;-78
2023/12/21 01:19:10;;;;;;;23.15;3.72;;;;;;;8.25;100.00;100026.38;4857287;29;20133;-78
2023/12/21 01:21:38;;;;;;;22.88;4.30;;;;;;;8.26;100.00;100044.75;4875987;29;20045;-78
2023/12/21 01:24:06;;;;;;;17.88;3.35;;;;;;;8.27;100.00;100043.88;4843857;29;20045;-78
2023/12/21 01:26:33;;;;;;;23.63;4.20;;;;;;;8.28;100.00;100052.59;4850779;29;21420;-79
2023/12/21 01:29:00;;;;;;;22.38;4.45;;;;;;;8.29;100.00;100036.00;4845864;29;20064;-79
2023/12/21 01:31:28;;;;;;;18.65;3.90;;;;;;;8.31;100.00;100039.50;4824054;29;20532;-79
2023/12/21 01:33:56;;;;;;;26.35;4.68;;;;;;;8.30;100.00;100030.75;4861611;29;20423;-79
2023/12/21 01:36:25;;;;;;;19.40;4.10;;;;;;;8.30;100.00;100025.50;4860096;29;20049;-79
2023/12/21 01:38:57;;;;;;;24.75;4.28;;;;;;;8.31;100.00;100021.13;4870805;29;20053;-79
2023/12/21 01:41:24;;;;;;;19.73;4.40;;;;;;;8.30;100.00;100021.97;4847063;29;20976;-79
2023/12/21 01:43:53;;;;;;;19.98;3.63;;;;;;;8.30;100.00;100012.38;4835726;29;20061;-80
2023/12/21 01:46:23;;;;;;;17.25;3.90;;;;;;;8.31;100.00;99998.34;4843531;29;20514;-78
2023/12/21 01:48:52;;;;;;;21.33;4.18;;;;;;;8.31;100.00;99979.13;4850398;29;20064;-78
2023/12/21 01:51:20;;;;;;;21.08;3.63;;;;;;;8.31;100.00;99982.59;4858208;29;20056;-79
2023/12/21 01:53:50;;;;;;;20.70;4.15;;;;;;;8.31;100.00;99968.63;4859139;29;20048;-79
2023/12/21 01:56:20;;;;;;;18.48;4.10;;;;;;;8.31;100.00;99964.22;4882119;29;20438;-79
2023/12/21 01:58:49;;;;;;;18.48;2.75;;;;;;;8.31;100.00;99961.59;4864194;29;20569;-78
2023/12/21 02:01:19;;;;;;;22.00;3.90;;;;;;;8.31;100.00;99955.50;4837961;29;20057;-79
2023/12/21 02:03:47;;;;;;;16.38;3.63;;;;;;;8.31;100.00;99947.63;4849517;29;20049;-79
2023/12/21 02:06:16;;;;;;;22.08;4.03;;;;;;;8.30;100.00;99948.47;4860148;29;20052;-79
2023/12/21 02:08:45;;;;;;;25.17;3.80;;;;;;;8.31;100.00;99945.00;4854506;29;20056;-78
2023/12/21 02:11:12;;;;;;;20.55;3.90;;;;;;;8.29;100.00;99921.38;4859672;29;20059;-78
2023/12/21 02:13:40;;;;;;;18.20;3.58;;;;;;;8.29;100.00;99920.50;4850791;29;20073;-78
2023/12/21 02:16:22;;;;;;;23.85;4.60;;;;;;;8.27;100.00;99927.50;4860928;29;20061;-80
2023/12/21 02:18:51;;;;;;;23.58;4.18;;;;;;;8.26;100.00;99912.63;4841218;29;20041;-79
2023/12/21 02:21:19;;;;;;;19.98;4.30;;;;;;;8.24;100.00;99906.50;4872674;29;20045;-78
2023/12/21 02:23:50;;;;;;;26.45;4.30;;;;;;;8.23;100.00;99905.63;4859014;29;20049;-78
2023/12/21 02:26:18;;;;;;;23.13;4.90;;;;;;;8.22;100.00;99908.25;4846351;29;20408;-78
2023/12/21 02:28:45;;;;;;;24.45;4.68;;;;;;;8.22;100.00;99908.25;4851922;29;20045;-78
2023/12/21 02:31:14;;;;;;;22.38;5.03;;;;;;;8.21;100.00;99896.91;4860686;29;20060;-79
2023/12/21 02:33:41;;;;;;;22.27;4.47;;;;;;;8.18;100.00;99897.78;4820917;29;20049;-79
2023/12/21 02:36:08;;;;;;;25.02;5.30;;;;;;;8.18;100.00;99899.53;4851903;29;20056;-79
2023/12/21 02:38:37;;;;;;;24.30;4.72;;;;;;;8.18;100.00;99896.91;4855969;29;20049;-79
2023/12/21 02:41:04;;;;;;;22.77;4.80;;;;;;;8.17;100.00;99897.78;4846206;29;20427;-80
2023/12/21 02:43:32;;;;;;;20.67;4.30;;;;;;;8.17;100.00;99876.78;4862001;29;20407;-81
2023/12/21 02:46:02;;;;;;;15.15;4.13;;;;;;;8.16;100.00;99862.78;4878015;29;20049;-78
2023/12/21 02:48:30;;;;;;;21.95;5.43;;;;;;;8.15;100.00;99855.81;4809759;29;20053;-78
2023/12/21 02:51:00;;;;;;;16.52;5.05;;;;;;;8.15;100.00;99855.81;4859058;29;20056;-80
2023/12/21 02:53:27;;;;;;;16.05;4.50;;;;;;;8.14;100.00;99842.69;4855478;29;20048;-78
2023/12/21 02:55:55;;;;;;;22.27;4.97;;;;;;;8.13;100.00;99831.31;4862917;29;20040;-79
2023/12/21 02:58:23;;;;;;;28.00;6.32;;;;;;;8.14;100.00;99821.69;4855578;29;20052;-80
2023/12/21 03:00:51;;;;;;;13.05;4.82;;;;;;;8.14;100.00;99808.56;4847191;29;20049;-79
2023/12/21 03:03:19;;;;;;;18.23;4.60;;;;;;;8.14;100.00;99798.06;4849902;29;20052;-79
2023/12/21 03:05:46;;;;;;;23.88;5.03;;;;;;;8.13;100.00;99791.09;4808647;29;20057;-78
2023/12/21 03:08:14;;;;;;;16.75;5.32;;;;;;;8.12;100.00;99787.56;4878195;29;20049;-78
2023/12/21 03:10:41;;;;;;;17.20;4.32;;;;;;;8.12;100.00;99800.69;4853361;29;20061;-79
2023/12/21 03:13:09;;;;;;;16.52;4.57;;;;;;;8.12;100.00;99782.31;4859990;29;20041;-79
2023/12/21 03:15:36;;;;;;;21.85;5.75;;;;;;;8.12;100.00;99777.06;4860689;29;20049;-79
2023/12/21 03:18:04;;;;;;;15.15;4.68;;;;;;;8.12;100.00;99784.09;4874449;29;20049;-78
2023/12/21 03:20:33;;;;;;;17.35;4.68;;;;;;;8.12;100.00;99784.09;4809859;29;20068;-78
2023/12/21 03:23:01;;;;;;;16.02;5.18;;;;;;;8.13;100.00;99764.84;4841203;29;20041;-78
2023/12/21 03:25:28;;;;;;;28.55;5.70;;;;;;;8.12;100.00;99755.22;4855160;29;20499;-79
2023/12/21 03:27:55;;;;;;;19.08;4.82;;;;;;;8.11;100.00;99741.22;4856698;29;20049;-79
2023/12/21 03:30:23;;;;;;;25.70;5.45;;;;;;;8.13;100.00;99756.97;4848114;29;20056;-79
2023/12/21 03:32:51;;;;;;;17.02;4.90;;;;;;;8.13;100.00;99728.13;4841455;29;20053;-78
2023/12/21 03:35:19;;;;;;;16.05;5.07;;;;;;;8.11;100.00;99717.63;4842038;29;20060;-79
2023/12/21 03:37:46;;;;;;;19.23;4.50;;;;;;;8.10;100.00;99705.38;4847981;29;20052;-80
2023/12/21 03:40:14;;;;;;;15.07;5.15;;;;;;;8.10;100.00;99697.50;4857360;29;20037;-78
2023/12/21 03:42:42;;;;;;;15.90;4.80;;;;;;;8.10;100.00;99700.13;4852693;29;20054;-78
2023/12/21 03:45:11;;;;;;;17.20;4.40;;;;;;;8.10;100.00;99705.38;4863023;29;20044;-78
2023/12/21 03:47:39;;;;;;;19.38;4.55;;;;;;;8.10;100.00;99705.38;4843710;29;20049;-80
2023/12/21 03:50:06;;;;;;;14.10;4.70;;;;;;;8.10;100.00;99687.00;4854168;29;20058;-78
2023/12/21 03:52:34;;;;;;;14.02;4.07;;;;;;;8.10;100.00;99684.38;4812112;29;21488;-78
2023/12/21 03:55:01;;;;;;;23.67;5.30;;;;;;;8.10;100.00;99668.63;4873516;29;20483;-78
2023/12/21 03:57:30;;;;;;;14.82;4.88;;;;;;;8.10;100.00;99663.38;4840739;29;20059;-77
2023/12/21 03:59:57;;;;;;;20.23;6.43;;;;;;;8.11;100.00;99643.25;4846622;29;20052;-79
2023/12/21 04:02:25;;;;;;;21.63;5.88;;;;;;;8.11;100.00;99651.13;4839993;29;20049;-79
2023/12/21 04:04:52;;;;;;;23.58;5.38;;;;;;;8.10;100.00;99644.16;4865285;29;20407;-79
2023/12/21 04:07:20;;;;;;;20.20;6.28;;;;;;;8.10;100.00;99636.28;4798467;29;20049;-81
2023/12/21 04:09:49;;;;;;;21.80;5.88;;;;;;;8.09;100.00;99610.91;4848459;29;20049;-78
2023/12/21 04:12:17;;;;;;;20.27;5.50;;;;;;;8.09;100.00;99618.78;4837699;29;20447;-79
2023/12/21 04:14:44;;;;;;;20.40;6.03;;;;;;;8.09;100.00;99605.66;4847492;29;20056;-80
2023/12/21 04:17:11;;;;;;;22.42;6.20;;;;;;;8.09;100.00;99597.78;4835208;29;20124;-80
2023/12/21 04:19:39;;;;;;;15.60;5.57;;;;;;;8.07;100.00;99600.44;4861333;29;20056;-79
2023/12/21 04:22:07;;;;;;;17.98;5.40;;;;;;;8.08;100.00;99598.69;4809224;29;20054;-79
2023/12/21 04:24:34;;;;;;;19.88;5.32;;;;;;;8.07;100.00;99594.31;4830640;29;20496;-78
2023/12/21 04:27:02;;;;;;;21.10;5.53;;;;;;;8.07;100.00;99589.97;4841141;29;20045;-78
2023/12/21 04:29:30;;;;;;;20.60;5.07;;;;;;;8.08;100.00;99575.94;4855057;29;20053;-78
2023/12/21 04:31:58;;;;;;;19.35;5.03;;;;;;;8.06;100.00;99588.19;4828422;29;20073;-79
2023/12/21 04:34:25;;;;;;;16.42;4.93;;;;;;;8.08;100.00;99568.06;4836919;29;20049;-79
2023/12/21 04:36:53;;;;;;;19.10;4.65;;;;;;;8.08;100.00;99565.44;4803044;29;20949;-80
2023/12/21 04:39:22;;;;;;;21.00;4.95;;;;;;;8.08;100.00;99549.69;4837296;29;20057;-79
2023/12/21 04:41:50;;;;;;;23.10;5.40;;;;;;;8.09;100.00;99545.31;4851478;29;20721;-79
2023/12/21 04:44:17;;;;;;;16.77;5.35;;;;;;;8.08;100.00;99544.44;4842057;29;20045;-80
2023/12/21 04:46:49;;;;;;;15.10;5.43;;;;;;;8.09;100.00;99524.31;4825159;29;20070;-79
2023/12/21 04:49:19;;;;;;;19.63;6.00;;;;;;;8.07;100.00;99511.25;4842467;29;20061;-79
2023/12/21 04:51:46;;;;;;;19.80;4.87;;;;;;;8.08;100.00;99510.34;4843441;29;20511;-78
2023/12/21 04:54:14;;;;;;;20.10;4.88;;;;;;;8.07;100.00;99511.25;4798419;29;20499;-79
2023/12/21 04:56:42;;;;;;;18.60;5.45;;;;;;;8.08;100.00;99512.97;4827637;29;20571;-79
2023/12/21 04:59:09;;;;;;;25.23;5.70;;;;;;;8.09;100.00;99524.31;4854686;29;20060;-78
2023/12/21 05:01:37;;;;;;;14.23;4.95;;;;;;;8.08;100.00;99512.97;4831187;29;20088;-78
2023/12/21 05:04:06;;;;;;;17.15;5.22;;;;;;;8.09;100.00;99524.31;4844733;29;20049;-78
2023/12/21 05:06:34;;;;;;;20.73;5.25;;;;;;;8.09;100.00;99503.34;4842114;29;20061;-78
2023/12/21 05:09:03;;;;;;;24.70;4.70;;;;;;;8.08;100.00;99512.97;4816977;29;20068;-78
2023/12/21 05:11:31;;;;;;;22.67;5.20;;;;;;;8.09;100.00;99498.09;4844131;29;20568;-80
2023/12/21 05:13:58;;;;;;;20.17;5.05;;;;;;;8.08;100.00;99481.47;4856079;29;20055;-79
2023/12/21 05:16:27;;;;;;;20.50;5.13;;;;;;;8.10;100.00;99481.47;4870015;29;20830;-78
2023/12/21 05:18:56;;;;;;;20.70;4.40;;;;;;;8.10;100.00;99463.97;4861493;29;20056;-80
2023/12/21 05:21:25;;;;;;;15.90;5.43;;;;;;;8.09;100.00;99451.75;4852065;29;20055;-80
2023/12/21 05:23:53;;;;;;;14.70;4.43;;;;;;;8.10;100.00;99442.13;4848498;29;20530;-80
2023/12/21 05:26:20;;;;;;;19.13;4.25;;;;;;;8.10;100.00;99436.88;4790526;29;20052;-79
2023/12/21 05:28:48;;;;;;;16.40;4.68;;;;;;;8.11;100.00;99426.38;4855567;29;20057;-80
2023/12/21 05:31:22;;;;;;;14.77;4.32;;;;;;;8.09;100.00;99419.38;4868007;29;20519;-79
2023/12/21 05:33:51;;;;;;;15.50;4.35;;;;;;;8.09;100.00;99415.03;4846572;29;20052;-78
2023/12/21 05:36:25;;;;;;;19.77;4.57;;;;;;;8.09;100.00;99403.63;4852683;29;20056;-79
2023/12/21 05:38:53;;;;;;;15.88;4.22;;;;;;;8.08;100.00;99402.78;4865027;29;20043;-79
2023/12/21 05:41:20;;;;;;;19.95;4.88;;;;;;;8.09;100.00;99394.03;4812298;29;20054;-80
2023/12/21 05:43:47;;;;;;;17.10;4.63;;;;;;;8.09;100.00;99377.41;4856973;29;20438;-79
2023/12/21 05:46:15;;;;;;;17.33;5.00;;;;;;;8.10;100.00;99371.28;4840635;29;20077;-78
2023/12/21 05:48:42;;;;;;;15.55;4.25;;;;;;;8.09;100.00;99357.31;4857493;29;20427;-80
2023/12/21 05:51:11;;;;;;;18.98;4.20;;;;;;;8.09;100.00;99346.81;4844988;29;20057;-78
2023/12/21 05:53:42;;;;;;;19.60;4.43;;;;;;;8.09;100.00;99330.16;4868907;29;20844;-78
2023/12/21 05:56:09;;;;;;;17.65;4.70;;;;;;;8.11;100.00;99328.41;4804988;29;20057;-80
2023/12/21 05:58:37;;;;;;;17.73;4.60;;;;;;;8.11;100.00;99329.28;4845164;29;20038;-79
2023/12/21 06:01:04;;;;;;;15.43;4.40;;;;;;;8.11;100.00;99313.56;4853841;29;20052;-80
2023/12/21 06:03:32;;;;;;;12.48;4.18;;;;;;;8.11;100.00;99313.56;4843332;29;20045;-79
2023/12/21 06:05:59;;;;;;;15.98;4.63;;;;;;;8.11;100.00;99284.69;4862242;29;20064;-78
2023/12/21 06:08:27;;;;;;;13.85;3.50;;;;;;;8.10;100.00;99263.72;4849431;29;20205;-79
2023/12/21 06:10:54;;;;;;;16.35;3.53;;;;;;;8.10;100.00;99259.31;4804149;29;20056;-78
2023/12/21 06:13:22;;;;;;;19.60;3.85;;;;;;;8.10;100.00;99266.34;4821170;29;20056;-78
2023/12/21 06:15:50;;;;;;;17.73;3.67;;;;;;;8.11;100.00;99253.19;4846922;29;20037;-78
2023/12/21 06:18:17;;;;;;;18.67;4.47;;;;;;;8.10;100.00;99238.34;4842171;29;20582;-78
2023/12/21 06:20:45;;;;;;;16.27;3.10;;;;;;;8.10;100.00;99235.72;4817296;29;20068;-79
2023/12/21 06:23:14;;;;;;;24.05;4.97;;;;;;;8.12;100.00;99236.56;4838971;29;20049;-79
2023/12/21 06:25:41;;;;;;;16.20;3.00;;;;;;;8.12;100.00;99236.56;4859518;29;20053;-78
2023/12/21 06:28:09;;;;;;;11.02;3.05;;;;;;;8.12;100.00;99205.06;4810747;29;20056;-77
2023/12/21 06:30:37;;;;;;;13.20;3.72;;;;;;;8.13;100.00;99217.31;4829037;29;20053;-79
2023/12/21 06:33:04;;;;;;;20.42;4.53;;;;;;;8.14;100.00;99199.81;4827440;29;20065;-78
2023/12/21 06:35:31;;;;;;;15.43;4.07;;;;;;;8.14;100.00;99198.03;4826458;29;20060;-77
2023/12/21 06:37:59;;;;;;;17.88;3.78;;;;;;;8.14;100.00;99198.03;4854970;29;20729;-77
2023/12/21 06:40:26;;;;;;;11.57;3.15;;;;;;;8.16;100.00;99182.28;4851827;29;20053;-78
2023/12/21 06:42:54;;;;;;;19.08;4.40;;;;;;;8.15;100.00;99177.94;4821166;29;20056;-78
2023/12/21 06:45:22;;;;;;;16.92;3.67;;;;;;;8.16;100.00;99179.66;4819192;29;20064;-77
2023/12/21 06:47:49;;;;;;;14.27;3.50;;;;;;;8.18;100.00;99185.75;4840612;29;20063;-78
2023/12/21 06:50:17;;;;;;;10.70;3.17;;;;;;;8.17;100.00;99163.91;4869530;29;20079;-77
2023/12/21 06:52:44;;;;;;;12.82;3.33;;;;;;;8.18;100.00;99170.91;4852240;29;20052;-77
2023/12/21 06:55:12;;;;;;;15.77;3.53;;;;;;;8.19;100.00;99170.00;4861422;29;20064;-78
2023/12/21 06:57:39;;;;;;;13.50;3.33;;;;;;;8.20;100.00;99158.63;4802711;29;20510;-79
2023/12/21 07:00:07;;;;;;;13.02;3.15;;;;;;;8.21;100.00;99167.34;4832887;29;20065;-77
2023/12/21 07:02:35;;;;;;;13.63;3.70;;;;;;;8.22;100.00;99173.47;4805077;29;20061;-78
2023/12/21 07:05:03;;;;;;;12.10;3.33;;;;;;;8.23;100.00;99148.97;4843876;29;20058;-79
2023/12/21 07:07:30;;;;;;;9.27;3.40;;;;;;;8.23;100.00;99155.09;4816629;29;20060;-79
2023/12/21 07:09:57;;;;;;;7.93;2.60;;;;;;;8.26;100.00;99157.69;4838876;29;20060;-78
2023/12/21 07:12:27;;;;;;;8.07;2.03;;;;;;;8.27;100.00;99140.16;4820513;29;20053;-78
2023/12/21 07:14:54;;;;;;;7.35;2.67;;;;;;;8.27;100.00;99163.78;4809143;29;20048;-77
2023/12/21 07:17:22;;;;;;;7.07;2.10;;;;;;;8.28;100.00;99145.41;4820896;29;20054;-78
2023/12/21 07:19:49;;;;;;;6.15;2.13;;;;;;;8.29;100.00;99160.22;4849411;29;20049;-78
2023/12/21 07:22:17;;;;;;;14.40;2.20;;;;;;;8.29;100.00;99154.97;4837829;29;20496;-77
2023/12/21 07:24:44;;;;;;;11.32;2.00;;;;;;;8.30;100.00;99132.22;4862198;29;20056;-77
2023/12/21 07:27:12;;;;;;;8.40;2.30;;;;;;;8.29;100.00;99149.72;4826732;29;20052;-76
2023/12/21 07:29:39;;;;;;;3.55;2.25;;;;;;;8.30;100.00;99140.09;4798466;29;20049;-77
2023/12/21 07:32:07;;;;;;;6.78;1.88;;;;;;;8.29;100.00;99123.50;4833289;29;20061;-77
2023/12/21 07:34:35;;;;;;;5.85;1.80;;;;;;;8.29;100.00;99120.88;4834204;29;20456;-77
2023/12/21 07:37:02;;;;;;;5.10;1.80;;;;;;;8.29;100.00;99112.13;4830636;29;20088;-77
2023/12/21 07:39:30;;;;;;;5.80;1.77;;;;;;;8.29;100.00;99094.63;4861863;29;20069;-78
2023/12/21 07:41:57;;;;;;;6.72;2.08;;;;;;;8.31;100.00;99110.34;4837458;29;20072;-77
2023/12/21 07:44:25;;;;;;;5.80;2.00;;;;;;;8.29;100.00;99107.75;4835004;29;20416;-77
2023/12/21 07:46:52;;;;;;;3.22;1.45;;;;;;;8.28;100.00;99105.13;4784090;29;20042;-77
2023/12/21 07:49:20;;;;;;;5.07;1.90;;;;;;;8.30;100.00;99092.84;4828374;29;20417;-77
2023/12/21 07:51:47;;;;;;;5.25;1.77;;;;;;;8.30;100.00;99095.47;4818746;29;20064;-77
2023/12/21 07:54:15;;;;;;;8.70;1.80;;;;;;;8.31;100.00;99084.09;4832707;29;20546;-76
2023/12/21 07:56:42;;;;;;;5.65;1.55;;;;;;;8.30;100.00;99071.88;4832047;29;20045;-77
2023/12/21 07:59:09;;;;;;;9.95;2.03;;;;;;;8.31;100.00;99084.09;4834415;29;20499;-77
2023/12/21 08:01:37;;;;;;;6.03;2.25;;;;;;;8.33;100.00;99079.69;4798498;29;20082;-77
2023/12/21 08:04:05;;;;;;;6.93;2.47;;;;;;;8.34;100.00;99063.06;4868944;29;20066;-77
2023/12/21 08:06:32;;;;;;;8.32;2.25;;;;;;;8.34;100.00;99063.06;4851755;29;20051;-78
2023/12/21 08:09:00;;;;;;;6.32;1.90;;;;;;;8.35;100.00;99062.16;4869839;29;20059;-78
2023/12/21 08:11:27;;;;;;;9.30;1.77;;;;;;;8.36;100.00;99061.28;4857534;29;20045;-77
2023/12/21 08:13:57;;;;;;;7.80;2.10;;;;;;;8.38;100.00;99059.50;4830069;29;20075;-77
2023/12/21 08:16:26;;;;;;;13.45;2.42;;;;;;;8.39;100.00;99055.97;4824242;29;20422;-77
2023/12/21 08:18:54;;;;;;;6.85;1.80;;;;;;;8.40;100.00;99058.56;4851469;29;20052;-76
2023/12/21 08:21:22;;;;;;;8.05;1.73;;;;;;;8.42;100.00;99034.97;4845630;29;20061;-78
2023/12/21 08:23:50;;;;;;;9.00;2.40;;;;;;;8.44;100.00;99030.56;4846521;29;20065;-78
2023/12/21 08:26:17;;;;;;;11.93;2.75;;;;;;;8.47;100.00;99029.63;4851930;29;20049;-77
2023/12/21 08:28:44;;;;;;;17.75;2.88;;;;;;;8.48;100.00;99013.84;4856424;29;20069;-78
2023/12/21 08:31:25;;;;;;;15.10;2.95;;;;;;;8.49;100.00;99012.13;4865110;29;20056;-78
2023/12/21 08:33:53;;;;;;;21.52;3.45;;;;;;;8.51;100.00;99005.06;4803357;29;20067;-77
2023/12/21 08:36:21;;;;;;;16.35;3.95;;;;;;;8.52;100.00;99010.28;4856187;29;20057;-79
2023/12/21 08:38:49;;;;;;;19.23;4.40;;;;;;;8.53;100.00;98993.66;4846938;29;20048;-78
2023/12/21 08:41:17;;;;;;;25.73;4.00;;;;;;;8.56;100.00;98990.97;4834593;29;20040;-77
2023/12/21 08:43:45;;;;;;;17.25;2.95;;;;;;;8.59;100.00;98987.41;4873809;29;20056;-77
2023/12/21 08:46:12;;;;;;;25.13;5.93;;;;;;;8.61;100.00;98976.88;4829774;29;20064;-77
2023/12/21 08:48:40;;;;;;;28.40;4.10;;;;;;;8.62;100.00;98978.59;4815426;29;20057;-78
2023/12/21 08:51:08;;;;;;;29.83;4.07;;;;;;;8.62;100.00;98966.38;4850150;29;20184;-78
2023/12/21 08:53:36;;;;;;;23.00;4.10;;;;;;;8.62;100.00;98960.22;4846500;29;20049;-77
2023/12/21 08:56:03;;;;;;;9.75;2.95;;;;;;;8.63;100.00;98954.94;4837702;29;20051;-78
2023/12/21 08:58:31;;;;;;;21.25;4.30;;;;;;;8.65;100.00;98944.44;4858615;29;20049;-77
2023/12/21 09:00:58;;;;;;;16.23;3.17;;;;;;;8.66;100.00;98943.50;4851375;29;20057;-77
2023/12/21 09:03:26;;;;;;;22.75;3.67;;;;;;;8.68;100.00;98944.38;4825092;29;20060;-77
2023/12/21 09:05:54;;;;;;;19.02;3.53;;;;;;;8.70;100.00;98946.06;4823199;29;20056;-78
2023/12/21 09:08:21;;;;;;;18.55;3.92;;;;;;;8.72;100.00;98922.41;4863695;29;20049;-77
2023/12/21 09:10:51;;;;;;;15.20;2.85;;;;;;;8.74;100.00;98920.63;4859926;29;20056;-78
2023/12/21 09:13:18;;;;;;;24.83;4.53;;;;;;;8.76;100.00;98917.03;4876738;29;20052;-78
2023/12/21 09:15:46;;;;;;;31.83;3.80;;;;;;;8.80;100.00;98914.38;4880425;29;20041;-77
2023/12/21 09:18:13;;;;;;;19.30;3.50;;;;;;;8.82;100.00;98902.06;4839709;29;20067;-77
2023/12/21 09:20:41;;;;;;;22.20;3.88;;;;;;;8.85;100.00;98889.75;4801263;29;20438;-78
2023/12/21 09:23:09;;;;;;;21.48;4.43;;;;;;;8.87;100.00;98887.94;4857422;29;20041;-78
2023/12/21 09:25:38;;;;;;;19.90;3.42;;;;;;;8.88;100.00;98880.91;4848401;29;20053;-77
2023/12/21 09:28:06;;;;;;;21.05;3.97;;;;;;;8.91;100.00;98880.88;4873556;29;20056;-78
2023/12/21 09:30:33;;;;;;;19.42;3.22;;;;;;;8.92;100.00;98874.69;4850807;29;20101;-77
2023/12/21 09:33:01;;;;;;;26.27;4.60;;;;;;;8.93;100.00;98861.53;4853431;29;20533;-77
2023/12/21 09:35:28;;;;;;;17.05;3.83;;;;;;;8.94;100.00;98823.00;4822387;29;20391;-77
2023/12/21 09:37:56;;;;;;;19.83;3.42;;;;;;;8.94;100.00;98818.63;4858873;29;20436;-78
2023/12/21 09:40:25;;;;;;;14.95;3.10;;;;;;;9.00;100.00;98832.50;4838106;29;20052;-78
2023/12/21 09:42:57;;;;;;;18.05;3.53;;;;;;;9.05;100.00;98863.03;4859724;29;20053;-78
2023/12/21 09:45:39;;;;;;;17.88;3.53;;;;;;;9.07;100.00;98855.97;4858684;29;20056;-77
2023/12/21 09:48:07;;;;;;;17.45;4.25;;;;;;;9.10;100.00;98862.94;4873556;29;20510;-78
2023/12/21 09:50:35;;;;;;;20.98;3.72;;;;;;;9.12;100.00;98853.25;4818167;29;21299;-78
2023/12/21 09:53:04;;;;;;;19.42;3.88;;;;;;;9.13;100.00;98854.97;4857076;29;20068;-77
2023/12/21 09:55:32;;;;;;;20.42;2.88;;;;;;;9.13;100.00;98833.94;4867120;29;20063;-78
2023/12/21 09:58:00;;;;;;;21.02;3.35;;;;;;;9.14;100.00;98830.44;4837606;29;20064;-78
2023/12/21 10:00:29;;;;;;;27.63;4.05;;;;;;;9.14;100.00;98826.03;4847198;29;20049;-78
2023/12/21 10:02:57;;;;;;;16.65;3.30;;;;;;;9.14;100.00;98819.91;4848491;29;20072;-78
2023/12/21 10:05:25;;;;;;;19.05;3.78;;;;;;;9.13;100.00;98819.06;4829055;29;20053;-78
2023/12/21 10:07:52;;;;;;;22.27;3.53;;;;;;;9.16;100.00;98828.63;4862165;29;20053;-78
2023/12/21 10:10:20;;;;;;;16.95;3.47;;;;;;;9.17;100.00;98825.97;4843312;29;20053;-78
2023/12/21 10:12:48;;;;;;;21.25;3.72;;;;;;;9.19;100.00;98831.19;4854258;29;20049;-78
2023/12/21 10:15:19;;;;;;;17.33;3.80;;;;;;;9.24;100.00;98803.03;4831519;29;20056;-78
2023/12/21 10:17:48;;;;;;;18.08;4.15;;;;;;;9.29;100.00;98823.94;4881654;29;20045;-79
2023/12/21 10:20:15;;;;;;;16.77;3.45;;;;;;;9.32;100.00;98832.63;4846951;29;20053;-78
2023/12/21 10:22:43;;;;;;;16.35;3.45;;;;;;;9.34;100.00;98837.84;4819806;29;20060;-77
2023/12/21 10:25:13;;;;;;;20.58;3.60;;;;;;;9.36;100.00;98825.53;4864831;29;20147;-78
2023/12/21 10:27:53;;;;;;;18.90;3.85;;;;;;;9.37;100.00;98827.25;4823912;29;20048;-78
2023/12/21 10:30:22;;;;;;;19.23;4.07;;;;;;;9.38;100.00;98817.63;4840557;29;20049;-78
2023/12/21 10:32:52;;;;;;;28.17;4.90;;;;;;;9.40;100.00;98832.44;4865898;29;20503;-78
2023/12/21 10:35:24;;;;;;;27.85;4.28;;;;;;;9.43;100.00;98829.72;4820330;29;20545;-77
2023/12/21 10:37:52;;;;;;;17.77;3.40;;;;;;;9.45;100.00;98809.53;4827653;29;20056;-78
2023/12/21 10:40:22;;;;;;;23.27;3.50;;;;;;;9.45;100.00;98817.44;4843232;29;20064;-77
2023/12/21 10:42:51;;;;;;;16.75;3.08;;;;;;;9.47;100.00;98802.47;4838554;29;20062;-78
2023/12/21 10:45:20;;;;;;;20.52;4.05;;;;;;;9.46;100.00;98818.28;4848687;29;20044;-78
2023/12/21 10:48:08;;;;;;;23.63;3.85;;;;;;;9.43;100.00;98813.09;4872573;29;20400;-78
2023/12/21 10:50:37;;;;;;;22.50;3.67;;;;;;;9.42;100.00;98806.97;4851359;29;20056;-78
2023/12/21 10:53:09;;;;;;;16.52;3.38;;;;;;;9.39;100.00;98798.31;4814055;29;20059;-78
2023/12/21 10:55:39;;;;;;;19.17;3.83;;;;;;;9.34;100.00;98803.69;4866826;29;20975;-77
2023/12/21 10:58:08;;;;;;;33.90;4.93;;;;;;;9.31;100.00;98817.75;4846724;29;20056;-79
2023/12/21 11:00:36;;;;;;;28.52;4.28;;;;;;;9.27;100.00;98816.09;4849555;29;20479;-78
2023/12/21 11:03:07;;;;;;;19.00;3.72;;;;;;;9.26;100.00;98771.44;4866236;29;20056;-78
2023/12/21 11:05:34;;;;;;;27.70;5.07;;;;;;;9.23;100.00;98803.94;4850416;29;20053;-78
2023/12/21 11:08:03;;;;;;;30.15;5.13;;;;;;;9.25;100.00;98817.03;4825424;29;20067;-78
2023/12/21 11:10:34;;;;;;;29.25;5.35;;;;;;;9.28;100.00;98807.31;4852430;29;20522;-77
2023/12/21 11:13:03;;;;;;;19.02;4.03;;;;;;;9.33;100.00;98808.06;4845167;29;20057;-79
2023/12/21 11:15:31;;;;;;;29.17;4.55;;;;;;;9.34;100.00;98796.66;4853995;29;20057;-77
2023/12/21 11:18:17;;;;;;;24.67;3.85;;;;;;;9.41;100.00;98804.38;4887127;29;20140;-78
2023/12/21 11:20:56;;;;;;;34.53;5.75;;;;;;;9.48;100.00;98798.94;4838045;29;20056;-78
2023/12/21 11:23:23;;;;;;;22.98;5.25;;;;;;;9.54;100.00;98805.81;4822824;29;20063;-77
2023/12/21 11:25:58;;;;;;;24.33;4.03;;;;;;;9.57;100.00;98803.09;4858680;29;20655;-78
2023/12/21 11:28:28;;;;;;;20.38;4.03;;;;;;;9.57;100.00;98798.69;4851911;29;20053;-77